Flugplatz Braunschweig Wolfsburg

Bericht für EDVE

vom 23.01. um 14:20 UTC

Wind 10 kt aus 90°

Sichtweite 6000 m

aufgebrochene Bewölkung in 1100 ft

Temperatur -4.0°C

Taupunkt -8.0°C

Luftfeuchtigkeit 74%

Luftdruck 1002 hPa

EDVE 231420Z 09010KT 6000 BKN011 M04/M08 Q1002

Prognose für EDVE

vom 23.01. um 14:00 UTC

Zwischen 15:00 UTC und 21:00 UTC

Wind 6 kt aus 90°

Sichtweite 7000 m

aufgelockert bewölkt in 1200 ft


Zwischen 15:00 UTC und 21:00 UTC zeitweise

Sichtweite 4000 m

feuchter Dunst

aufgebrochene Bewölkung in 900 ft

TAF EDVE 231400Z 2315/2321 09006KT 7000 SCT012 TEMPO 2315/2321 4000 BR BKN009
Impressum